Time;durP1;ratioP1;P1;durP2;ratioP2;P2;SDS_P1;SDS_P2;PMS_P1;PMS_P2;Temp;Humidity;BMP_temperature;BMP_pressure;BME280_temperature;BME280_humidity;BME280_pressure;Samples;Min_cycle;Max_cycle;Signal;HPM_P1;HPM_P2
2021/09/03 00:00:13;;;;;;;6.2;4.6;;;;;;;12.85;91.8877;942.7573;;;;
2021/09/03 00:02:38;;;;;;;8.8;4.7;;;;;;;12.84;91.40234;942.7277;;;;
2021/09/03 00:05:03;;;;;;;4.9;4.2;;;;;;;12.89;91.0332;942.7536;;;;
2021/09/03 00:07:28;;;;;;;6.2;5;;;;;;;12.9;90.80664;942.7194;;;;
2021/09/03 00:09:53;;;;;;;6.4;4.6;;;;;;;12.82;91.2168;942.718;;;;
2021/09/03 00:12:18;;;;;;;5.4;4.5;;;;;;;12.86;91.03906;942.683;;;;
2021/09/03 00:14:43;;;;;;;6.3;4.7;;;;;;;12.93;90.2959;942.6333;;;;
2021/09/03 00:17:08;;;;;;;8.3;5.4;;;;;;;12.85;90.72656;942.6702;;;;
2021/09/03 00:19:33;;;;;;;6.5;4.7;;;;;;;12.79;91.11719;942.6462;;;;
2021/09/03 00:21:58;;;;;;;6.8;4.7;;;;;;;12.73;91.34473;942.6346;;;;
2021/09/03 00:24:24;;;;;;;6.2;4.8;;;;;;;12.64;91.44238;942.582;;;;
2021/09/03 00:26:49;;;;;;;7;4.4;;;;;;;12.61;91.76758;942.6141;;;;
2021/09/03 00:29:14;;;;;;;6.1;4.9;;;;;;;12.6;91.62793;942.6228;;;;
2021/09/03 00:31:39;;;;;;;7.2;4.3;;;;;;;12.66;91.12305;942.5804;;;;
2021/09/03 00:34:04;;;;;;;6.1;4.8;;;;;;;12.67;91.0332;942.5974;;;;
2021/09/03 00:36:29;;;;;;;6.5;4.6;;;;;;;12.72;90.50586;942.5098;;;;
2021/09/03 00:38:54;;;;;;;6.7;4.7;;;;;;;12.66;91.05469;942.5014;;;;
2021/09/03 00:41:19;;;;;;;7.2;5.1;;;;;;;12.49;91.25;942.5069;;;;
2021/09/03 00:43:44;;;;;;;7.4;5;;;;;;;12.51;91.72363;942.5366;;;;
2021/09/03 00:46:09;;;;;;;5.3;4.5;;;;;;;12.35;93.3291;942.5652;;;;
2021/09/03 00:48:34;;;;;;;7.6;5.4;;;;;;;12.33;93.37305;942.4836;;;;
2021/09/03 00:50:59;;;;;;;6.6;4.9;;;;;;;12.28;93.51074;942.5637;;;;
2021/09/03 00:53:25;;;;;;;7.2;5;;;;;;;12.24;94.21094;942.5634;;;;
2021/09/03 00:55:50;;;;;;;5.9;4.8;;;;;;;12.28;94.18652;942.5198;;;;
2021/09/03 00:58:15;;;;;;;6.1;5.1;;;;;;;12.39;93.55664;942.4514;;;;
2021/09/03 01:00:40;;;;;;;6.7;4.6;;;;;;;12.28;93.84082;942.4464;;;;
2021/09/03 01:03:05;;;;;;;6.7;4.7;;;;;;;12.16;94.35449;942.4464;;;;
2021/09/03 01:05:30;;;;;;;10.4;5.1;;;;;;;12.01;95.46875;942.4211;;;;
2021/09/03 01:07:55;;;;;;;8.1;5.6;;;;;;;11.97;96.01758;942.3844;;;;
2021/09/03 01:10:21;;;;;;;7.9;5.3;;;;;;;11.77;97.14355;942.3313;;;;
2021/09/03 01:12:46;;;;;;;6.8;5;;;;;;;11.69;98.03027;942.3608;;;;
2021/09/03 01:15:11;;;;;;;6.8;4.7;;;;;;;11.79;97.43457;942.2321;;;;
2021/09/03 01:18:07;;;;;;;7.6;5.3;;;;;;;11.79;97.55957;942.2385;;;;
2021/09/03 01:20:31;;;;;;;6.4;4.8;;;;;;;11.97;96.30664;942.3516;;;;
2021/09/03 01:22:56;;;;;;;6.7;4.9;;;;;;;12.04;95.33496;942.3247;;;;
2021/09/03 01:25:21;;;;;;;7;4.8;;;;;;;12.08;94.72852;942.3499;;;;
2021/09/03 01:27:47;;;;;;;6.5;4.9;;;;;;;12.09;94.95703;942.2893;;;;
2021/09/03 01:30:12;;;;;;;7;5.3;;;;;;;12.17;94.26465;942.2438;;;;
2021/09/03 01:32:37;;;;;;;6.9;4.9;;;;;;;12.15;93.81348;942.2676;;;;
2021/09/03 01:35:02;;;;;;;5.9;4.5;;;;;;;12.04;94.24609;942.2497;;;;
2021/09/03 01:37:27;;;;;;;7;5;;;;;;;11.99;94.19043;942.2425;;;;
2021/09/03 01:39:52;;;;;;;7;4.8;;;;;;;11.91;95.1582;942.1986;;;;
2021/09/03 01:42:17;;;;;;;6.8;4.7;;;;;;;11.95;95.18164;942.2094;;;;
2021/09/03 01:44:42;;;;;;;6.6;4.6;;;;;;;11.94;94.64844;942.1438;;;;
2021/09/03 01:47:08;;;;;;;6.6;4.9;;;;;;;11.91;94.75781;942.0598;;;;
2021/09/03 01:49:33;;;;;;;7;5;;;;;;;11.89;94.93652;942.0843;;;;
2021/09/03 01:51:58;;;;;;;6.1;4.7;;;;;;;11.94;94.4541;942.127;;;;
2021/09/03 01:54:23;;;;;;;7.1;4.9;;;;;;;12.05;93.92969;942.0901;;;;
2021/09/03 01:56:48;;;;;;;9.5;5.4;;;;;;;12.16;93.03613;942.1535;;;;
2021/09/03 01:59:13;;;;;;;6.9;4.9;;;;;;;12.14;92.57422;942.0927;;;;
2021/09/03 02:01:38;;;;;;;18.6;9.2;;;;;;;12.07;92.7168;942.123;;;;
2021/09/03 02:04:03;;;;;;;153.1;63.2;;;;;;;12.05;92.85059;942.1309;;;;
2021/09/03 02:06:29;;;;;;;56.3;27.9;;;;;;;12.05;92.65625;942.1069;;;;
2021/09/03 02:08:54;;;;;;;10.4;6.5;;;;;;;12.02;92.78906;942.0556;;;;
2021/09/03 02:11:19;;;;;;;7.5;5;;;;;;;11.99;93.22852;942.1061;;;;
2021/09/03 02:13:44;;;;;;;15.6;7.5;;;;;;;12.02;92.77832;942.1465;;;;
2021/09/03 02:16:09;;;;;;;7.5;5.4;;;;;;;12.01;92.63867;942.127;;;;
2021/09/03 02:18:34;;;;;;;7.6;4.6;;;;;;;12;92.46289;942.095;;;;
2021/09/03 02:20:59;;;;;;;6.2;4.7;;;;;;;12.07;92.4668;941.973;;;;
2021/09/03 02:23:24;;;;;;;6.1;4.8;;;;;;;11.99;92.99902;942.0989;;;;
2021/09/03 02:25:50;;;;;;;7.3;4.8;;;;;;;11.94;93.22852;942.0808;;;;
2021/09/03 02:28:16;;;;;;;7.4;4.8;;;;;;;11.92;93.19043;942.0183;;;;
2021/09/03 02:30:40;;;;;;;8.5;5.6;;;;;;;11.92;93.44238;942.0406;;;;
2021/09/03 02:33:05;;;;;;;6.6;5;;;;;;;11.8;93.89746;941.9745;;;;
2021/09/03 02:35:30;;;;;;;5.8;4.4;;;;;;;11.87;93.43262;942.049;;;;
2021/09/03 02:37:56;;;;;;;7.1;4.7;;;;;;;11.87;93.38672;942.0458;;;;
2021/09/03 02:40:21;;;;;;;8.7;5.2;;;;;;;11.79;93.23145;941.9944;;;;
2021/09/03 02:42:46;;;;;;;5.8;4.9;;;;;;;11.74;93.41504;942.0103;;;;
2021/09/03 02:45:11;;;;;;;7.5;5.1;;;;;;;11.74;95.13184;941.9169;;;;
2021/09/03 02:47:36;;;;;;;6.7;4.7;;;;;;;11.76;95.12891;942.0114;;;;
2021/09/03 02:50:01;;;;;;;6.1;4.7;;;;;;;11.78;94.38574;941.9891;;;;
2021/09/03 02:52:26;;;;;;;6.5;5;;;;;;;11.64;94.5498;942.0435;;;;
2021/09/03 02:54:51;;;;;;;7.6;5.4;;;;;;;11.65;94.32422;941.9695;;;;
2021/09/03 02:57:17;;;;;;;8.9;5.3;;;;;;;11.67;94.7959;942.0183;;;;
2021/09/03 02:59:43;;;;;;;8.7;5.4;;;;;;;11.66;94.75977;941.8889;;;;
2021/09/03 03:02:08;;;;;;;6.4;5.1;;;;;;;11.59;95.06641;941.9254;;;;
2021/09/03 03:04:33;;;;;;;8.2;5.4;;;;;;;11.63;94.54785;941.9412;;;;
2021/09/03 03:06:58;;;;;;;5.8;4.7;;;;;;;11.62;94.47852;941.9508;;;;
2021/09/03 03:09:23;;;;;;;7.1;4.8;;;;;;;11.58;94.41211;941.942;;;;
2021/09/03 03:11:48;;;;;;;6.4;5.2;;;;;;;11.63;94.16992;941.9492;;;;
2021/09/03 03:14:16;;;;;;;6.7;4.8;;;;;;;11.75;93.85352;941.98;;;;
2021/09/03 03:16:38;;;;;;;7.6;4.6;;;;;;;11.81;93.23535;941.9316;;;;
2021/09/03 03:19:04;;;;;;;7.2;4.8;;;;;;;11.67;93.57227;941.9999;;;;
2021/09/03 03:21:29;;;;;;;5.4;4.6;;;;;;;11.55;94.31445;941.9425;;;;
2021/09/03 03:23:54;;;;;;;7;5.1;;;;;;;11.47;94.50293;941.9456;;;;
2021/09/03 03:26:19;;;;;;;6.5;4.2;;;;;;;11.51;94.35938;941.9101;;;;
2021/09/03 03:28:44;;;;;;;6.6;4.7;;;;;;;11.49;94.52734;941.9002;;;;
2021/09/03 03:31:09;;;;;;;6.3;4.9;;;;;;;11.47;94.96973;941.8809;;;;
2021/09/03 03:33:34;;;;;;;6.5;4.9;;;;;;;11.37;94.8125;941.9026;;;;
2021/09/03 03:36:00;;;;;;;5.5;4.6;;;;;;;11.11;95.56738;941.8942;;;;
2021/09/03 03:38:25;;;;;;;6.6;5;;;;;;;11.05;96.27344;941.8552;;;;
2021/09/03 03:40:50;;;;;;;5.7;4.6;;;;;;;11;96.66113;941.7706;;;;
2021/09/03 03:43:35;;;;;;;7.3;4.6;;;;;;;10.97;96.9541;941.8586;;;;
2021/09/03 03:46:01;;;;;;;6.4;4.6;;;;;;;11.01;96.87109;941.7874;;;;
2021/09/03 03:48:26;;;;;;;6.2;4.9;;;;;;;11.12;96.64355;941.7222;;;;
2021/09/03 03:50:51;;;;;;;5.7;4.8;;;;;;;11.23;96.38184;941.7327;;;;
2021/09/03 03:53:57;;;;;;;6.4;4.8;;;;;;;11.28;96.01465;941.7723;;;;
2021/09/03 03:56:23;;;;;;;6.2;4.5;;;;;;;11.27;95.08789;941.6964;;;;
2021/09/03 03:58:48;;;;;;;5.5;4.3;;;;;;;11.1;96.05469;941.7314;;;;
2021/09/03 04:02:31;;;;;;;6.4;4.6;;;;;;;11.11;96.16113;941.7333;;;;
2021/09/03 04:04:56;;;;;;;8.1;4.7;;;;;;;11.16;96.40234;941.659;;;;
2021/09/03 04:07:21;;;;;;;6.4;5;;;;;;;11.2;96.14551;941.6841;;;;
2021/09/03 04:09:46;;;;;;;7.7;4.9;;;;;;;11.15;95.64355;941.6492;;;;
2021/09/03 04:12:12;;;;;;;6.2;4.6;;;;;;;11.16;95.51953;941.6756;;;;
2021/09/03 04:14:37;;;;;;;7.5;4.9;;;;;;;11.13;95.67578;941.5989;;;;
2021/09/03 04:17:02;;;;;;;8.6;4.9;;;;;;;11.16;95.47363;941.7004;;;;
2021/09/03 04:20:42;;;;;;;7.2;4.6;;;;;;;11.02;96.67871;941.6459;;;;
2021/09/03 04:23:09;;;;;;;6.7;4.8;;;;;;;11.11;96.49512;941.6433;;;;
2021/09/03 04:25:33;;;;;;;7;4.8;;;;;;;11.25;95.55273;941.5775;;;;
2021/09/03 04:27:58;;;;;;;8.1;5.2;;;;;;;11.3;94.625;941.5725;;;;
2021/09/03 04:30:23;;;;;;;7;4.5;;;;;;;11.36;94.21387;941.6776;;;;
2021/09/03 04:32:48;;;;;;;6;4.6;;;;;;;11.36;93.63281;941.6194;;;;
2021/09/03 04:35:13;;;;;;;5.5;4.3;;;;;;;11.36;93.53906;941.6624;;;;
2021/09/03 04:37:38;;;;;;;7.3;4.7;;;;;;;11.37;93.60938;941.6617;;;;
2021/09/03 04:40:03;;;;;;;7.3;4.8;;;;;;;11.34;93.87793;941.663;;;;
2021/09/03 04:42:29;;;;;;;5.4;4;;;;;;;11.33;94.01367;941.6573;;;;
2021/09/03 04:44:54;;;;;;;6.4;4.3;;;;;;;11.31;94.12207;941.6849;;;;
2021/09/03 04:47:19;;;;;;;6;4.8;;;;;;;11.28;94.1748;941.6552;;;;
2021/09/03 04:49:44;;;;;;;6.6;4.5;;;;;;;11.31;93.90625;941.6635;;;;
2021/09/03 04:52:18;;;;;;;6;4.3;;;;;;;11.33;93.77344;941.6733;;;;
2021/09/03 04:54:44;;;;;;;8.7;5;;;;;;;11.36;93.92969;941.7525;;;;
2021/09/03 04:57:09;;;;;;;7.6;4.8;;;;;;;11.32;94.35449;941.721;;;;
2021/09/03 04:59:34;;;;;;;7.5;4.9;;;;;;;11.27;95.06543;941.6869;;;;
2021/09/03 05:01:59;;;;;;;6.8;4.6;;;;;;;11.31;95.07324;941.7048;;;;
2021/09/03 05:04:24;;;;;;;6.3;4.6;;;;;;;11.26;95.56445;941.6819;;;;
2021/09/03 05:06:49;;;;;;;10.7;8.9;;;;;;;11.28;95.22559;941.7356;;;;
2021/09/03 05:09:14;;;;;;;27.6;21.8;;;;;;;11.31;95.08496;941.7264;;;;
2021/09/03 05:11:39;;;;;;;16;12.2;;;;;;;11.46;94.55762;941.7062;;;;
2021/09/03 05:14:04;;;;;;;6.3;4.8;;;;;;;11.62;93.52637;941.6628;;;;
2021/09/03 05:16:29;;;;;;;8.6;5.2;;;;;;;11.54;93.82031;941.6696;;;;
2021/09/03 05:18:55;;;;;;;7.4;5;;;;;;;11.66;93.36523;941.6752;;;;
2021/09/03 05:21:20;;;;;;;7.5;4.6;;;;;;;11.64;93.25781;941.6646;;;;
2021/09/03 05:23:45;;;;;;;7.6;4.8;;;;;;;11.69;93.03906;941.7457;;;;
2021/09/03 05:26:10;;;;;;;16.8;14.6;;;;;;;11.62;93.11621;941.7242;;;;
2021/09/03 05:28:35;;;;;;;9.3;6.6;;;;;;;11.53;93.48438;941.7125;;;;
2021/09/03 05:31:00;;;;;;;5.9;4.6;;;;;;;11.49;94.19727;941.7025;;;;
2021/09/03 05:33:25;;;;;;;7.9;5.4;;;;;;;11.58;93.88477;941.7625;;;;
2021/09/03 05:35:51;;;;;;;7.7;5.6;;;;;;;11.7;93.42969;941.7355;;;;
2021/09/03 05:38:36;;;;;;;10.2;5.4;;;;;;;11.79;93.11523;941.7319;;;;
2021/09/03 05:41:02;;;;;;;13.7;6.2;;;;;;;12.02;93.94629;941.722;;;;
2021/09/03 05:43:27;;;;;;;13.7;4.9;;;;;;;13;91.95508;941.6992;;;;
2021/09/03 05:45:52;;;;;;;7.7;4;;;;;;;14.52;81.85938;941.6558;;;;
2021/09/03 05:48:18;;;;;;;12;4.2;;;;;;;15.25;76.89258;941.6774;;;;
2021/09/03 05:50:43;;;;;;;5.2;3.7;;;;;;;15.07;76.90723;941.6367;;;;
2021/09/03 05:53:09;;;;;;;10.8;4.3;;;;;;;14.68;78.7998;941.652;;;;
2021/09/03 05:55:33;;;;;;;19.5;4.6;;;;;;;14.52;80.68359;941.6365;;;;
2021/09/03 05:57:58;;;;;;;11.4;4.9;;;;;;;14.43;82.55664;941.6718;;;;
2021/09/03 06:00:31;;;;;;;10.4;4.5;;;;;;;14.48;83.15234;941.6542;;;;
2021/09/03 06:02:55;;;;;;;6.6;4.4;;;;;;;14.59;83.17285;941.6958;;;;
2021/09/03 06:05:20;;;;;;;7.2;4.4;;;;;;;14.77;82.51563;941.6583;;;;
2021/09/03 06:07:45;;;;;;;7.6;4;;;;;;;15.33;80.90137;941.6803;;;;
2021/09/03 06:10:11;;;;;;;6.9;3.7;;;;;;;16.75;75.98633;941.6573;;;;
2021/09/03 06:12:36;;;;;;;4.6;4;;;;;;;18.27;68.70801;941.6284;;;;
2021/09/03 06:15:01;;;;;;;6.8;4.3;;;;;;;19.96;62.00684;941.6105;;;;
2021/09/03 06:17:26;;;;;;;5.5;3.5;;;;;;;20.8;57.64844;941.6744;;;;
2021/09/03 06:19:51;;;;;;;5;3.4;;;;;;;21.84;55.26465;941.5547;;;;
2021/09/03 06:22:16;;;;;;;5.5;3.2;;;;;;;23.08;50.95508;941.5566;;;;
2021/09/03 06:24:41;;;;;;;3.3;2.8;;;;;;;24.14;48.09668;941.5318;;;;
2021/09/03 06:27:07;;;;;;;3.9;2.7;;;;;;;25.19;45.51758;941.5898;;;;
2021/09/03 06:29:39;;;;;;;4.2;3.4;;;;;;;25.92;44.55176;941.5334;;;;
2021/09/03 06:31:58;;;;;;;5.5;3.1;;;;;;;26.79;41.60547;941.5404;;;;
2021/09/03 06:34:23;;;;;;;4.5;3.4;;;;;;;27.41;40.07324;941.5452;;;;
2021/09/03 06:36:48;;;;;;;5.7;3.1;;;;;;;26.04;42.22266;941.5103;;;;
2021/09/03 06:39:13;;;;;;;4.9;3.2;;;;;;;26.83;41.64551;941.5319;;;;
2021/09/03 06:41:38;;;;;;;3.6;3;;;;;;;27.52;40.60547;941.4905;;;;
2021/09/03 06:44:03;;;;;;;4.8;3.4;;;;;;;28.69;37.71289;941.5664;;;;
2021/09/03 06:46:58;;;;;;;7;3.8;;;;;;;27.98;38.53223;941.5051;;;;
2021/09/03 06:49:23;;;;;;;5.7;3.4;;;;;;;27.65;39.97656;941.4861;;;;
2021/09/03 06:51:49;;;;;;;5.8;3.6;;;;;;;28.97;37.36719;941.5135;;;;
2021/09/03 06:54:14;;;;;;;5.8;3.4;;;;;;;28.52;37.93555;941.5289;;;;
2021/09/03 06:56:39;;;;;;;3.2;2.9;;;;;;;27.41;42.2207;941.4812;;;;
2021/09/03 06:59:04;;;;;;;3.9;2.8;;;;;;;24.37;50.33594;941.4708;;;;
2021/09/03 07:01:29;;;;;;;5.6;3.7;;;;;;;24.67;49.63867;941.4508;;;;
2021/09/03 07:03:55;;;;;;;4;2.9;;;;;;;24.27;51.16113;941.4742;;;;
2021/09/03 07:06:20;;;;;;;5.2;3.4;;;;;;;24.53;50.05957;941.4142;;;;
2021/09/03 07:08:45;;;;;;;4.5;2.8;;;;;;;26.42;45.56055;941.3859;;;;
2021/09/03 07:11:10;;;;;;;4.1;2.9;;;;;;;24.84;49.75195;941.4294;;;;
2021/09/03 07:13:36;;;;;;;3.5;2.7;;;;;;;24.41;50.48242;941.4001;;;;
2021/09/03 07:16:00;;;;;;;4.9;3.2;;;;;;;24.59;49.15918;941.3858;;;;
2021/09/03 07:18:25;;;;;;;3.2;2.9;;;;;;;25.06;48.36133;941.3588;;;;
2021/09/03 07:20:51;;;;;;;3.1;2.5;;;;;;;25.42;47.25391;941.3856;;;;
2021/09/03 07:23:16;;;;;;;3.1;2.7;;;;;;;26.89;43.84277;941.3223;;;;
2021/09/03 07:25:41;;;;;;;3.5;2.9;;;;;;;27.01;43.74805;941.3332;;;;
2021/09/03 07:28:07;;;;;;;3;2.7;;;;;;;27.86;41.65723;941.2575;;;;
2021/09/03 07:30:32;;;;;;;4.3;2.8;;;;;;;27.96;42.8418;941.345;;;;
2021/09/03 07:32:58;;;;;;;2.6;2.4;;;;;;;28.65;39.79102;941.327;;;;
2021/09/03 07:35:24;;;;;;;3.6;2.9;;;;;;;28.34;40.38281;941.3522;;;;
2021/09/03 07:37:51;;;;;;;4.5;2.6;;;;;;;28.09;39.96875;941.316;;;;
2021/09/03 07:40:14;;;;;;;4;2.7;;;;;;;28.91;38.62402;941.329;;;;
2021/09/03 07:42:39;;;;;;;3.5;2.7;;;;;;;28.73;37.65625;941.324;;;;
2021/09/03 07:45:04;;;;;;;3.8;2.6;;;;;;;28.99;37.77441;941.286;;;;
2021/09/03 07:47:29;;;;;;;4.2;2.8;;;;;;;29.55;36.66406;941.3178;;;;
2021/09/03 07:49:55;;;;;;;3.4;2.8;;;;;;;27.79;40.41504;941.3064;;;;
2021/09/03 07:52:19;;;;;;;2.7;2.4;;;;;;;28.79;39.17383;941.2541;;;;
2021/09/03 07:54:45;;;;;;;3.5;2.6;;;;;;;29.41;38.20215;941.2275;;;;
2021/09/03 07:57:10;;;;;;;3.8;2.9;;;;;;;29.81;36.50684;941.1955;;;;
2021/09/03 07:59:35;;;;;;;3.8;3;;;;;;;31.32;34.41504;941.1392;;;;
2021/09/03 08:02:00;;;;;;;4.1;2.6;;;;;;;30.28;35.13574;941.1378;;;;
2021/09/03 08:04:25;;;;;;;3.1;2.8;;;;;;;32.31;33.21973;941.1647;;;;
2021/09/03 08:06:50;;;;;;;3.2;2.6;;;;;;;33.5;31.5752;941.1771;;;;
2021/09/03 08:09:15;;;;;;;4;2.7;;;;;;;32.7;31.86719;941.1348;;;;
2021/09/03 08:11:41;;;;;;;2.6;2.4;;;;;;;31.64;33.73242;941.1362;;;;
2021/09/03 08:14:06;;;;;;;2.9;2.5;;;;;;;30.37;36.30176;941.1254;;;;
2021/09/03 08:16:31;;;;;;;3.1;2.7;;;;;;;30.75;35.59082;941.1465;;;;
2021/09/03 08:18:56;;;;;;;2.8;2.5;;;;;;;31.48;33.55371;941.1456;;;;
2021/09/03 08:21:21;;;;;;;3;2.7;;;;;;;29.59;39.83887;941.1223;;;;
2021/09/03 08:23:46;;;;;;;3.2;2.6;;;;;;;29.89;38.75586;941.1004;;;;
2021/09/03 08:26:12;;;;;;;3.2;2.7;;;;;;;29.79;41.10938;941.0552;;;;
2021/09/03 08:28:37;;;;;;;4.5;2.8;;;;;;;30.61;38.67383;941.0861;;;;
2021/09/03 08:31:02;;;;;;;4.1;2.8;;;;;;;30.56;37.69043;941.037;;;;
2021/09/03 08:33:27;;;;;;;3.5;2.6;;;;;;;30.32;38.68555;941.1053;;;;
2021/09/03 08:35:52;;;;;;;3.1;2.8;;;;;;;30.22;37.97266;941.0956;;;;
2021/09/03 08:38:18;;;;;;;3.7;3.1;;;;;;;29.36;39.97363;941.0941;;;;
2021/09/03 08:40:43;;;;;;;3;2.6;;;;;;;29.26;40.47559;941.1069;;;;
2021/09/03 08:43:08;;;;;;;3.1;2.6;;;;;;;28.23;43.21289;941.0989;;;;
2021/09/03 08:45:33;;;;;;;4.5;2.7;;;;;;;28.23;42.04883;941.1343;;;;
2021/09/03 08:47:58;;;;;;;3.9;2.8;;;;;;;28.33;41.38086;941.0765;;;;
2021/09/03 08:50:23;;;;;;;4;2.8;;;;;;;27.56;44.47852;941.0923;;;;
2021/09/03 08:52:48;;;;;;;2.7;2.5;;;;;;;27.13;44.39941;941.0502;;;;
2021/09/03 08:55:14;;;;;;;4;2.4;;;;;;;26.69;45.59961;941.0261;;;;
2021/09/03 08:57:39;;;;;;;3.3;2.6;;;;;;;28.09;43.68652;941.0945;;;;
2021/09/03 09:00:04;;;;;;;3.1;2.7;;;;;;;27.61;41.90723;941.0637;;;;
2021/09/03 09:02:29;;;;;;;3.1;2.4;;;;;;;26.35;46.99805;941.0242;;;;
2021/09/03 09:04:54;;;;;;;3.5;2.8;;;;;;;26.1;46.22559;941.0122;;;;
2021/09/03 09:07:19;;;;;;;3.8;3;;;;;;;26.03;48.41895;941.0847;;;;
2021/09/03 09:09:47;;;;;;;2.9;2.7;;;;;;;25.95;48.1377;941.0989;;;;
2021/09/03 09:12:12;;;;;;;4.2;2.7;;;;;;;27.05;45.96777;941.0421;;;;
2021/09/03 09:14:35;;;;;;;2.6;2.4;;;;;;;25.96;46.1875;941.07;;;;
2021/09/03 09:17:00;;;;;;;3.2;2.6;;;;;;;26.23;48.41602;941.0611;;;;
2021/09/03 09:19:26;;;;;;;2.5;2.2;;;;;;;26.73;46.3623;941.0291;;;;
2021/09/03 09:21:51;;;;;;;2.9;2.6;;;;;;;25.08;49.73242;941.0231;;;;
2021/09/03 09:24:16;;;;;;;3.2;2.7;;;;;;;25.86;49.57129;940.9503;;;;
2021/09/03 09:26:41;;;;;;;2.8;2.5;;;;;;;25.33;50.10254;940.967;;;;
2021/09/03 09:29:07;;;;;;;3.2;2.7;;;;;;;25.02;51.7666;940.9651;;;;
2021/09/03 09:31:32;;;;;;;4;2.8;;;;;;;24.77;53.25977;940.9398;;;;
2021/09/03 09:33:57;;;;;;;3;2.5;;;;;;;23.78;55.6123;940.9395;;;;
2021/09/03 09:36:22;;;;;;;3.6;2.8;;;;;;;24.97;52.5166;940.9692;;;;
2021/09/03 09:38:47;;;;;;;3.6;2.6;;;;;;;24.47;53.02246;940.9495;;;;
2021/09/03 09:41:14;;;;;;;3.7;2.7;;;;;;;23.54;56.79297;940.9171;;;;
2021/09/03 09:43:37;;;;;;;3;2.7;;;;;;;22.94;58.90137;940.8959;;;;
2021/09/03 09:48:27;;;;;;;3;2.7;;;;;;;24.01;55.4873;940.9011;;;;
2021/09/03 09:50:52;;;;;;;3.7;2.9;;;;;;;24.6;52.26074;940.8049;;;;
2021/09/03 09:53:17;;;;;;;5;2.9;;;;;;;24.94;51.27441;940.7963;;;;
2021/09/03 09:55:44;;;;;;;4.1;3.3;;;;;;;24.47;54.03613;940.7441;;;;
2021/09/03 09:58:08;;;;;;;3.1;2.8;;;;;;;24.27;55.07227;940.8329;;;;
2021/09/03 10:00:35;;;;;;;5;2.9;;;;;;;24.31;51.5791;940.8113;;;;
2021/09/03 10:02:58;;;;;;;4.1;2.8;;;;;;;24.85;50.23633;940.7512;;;;
2021/09/03 10:05:23;;;;;;;3.8;3;;;;;;;25.01;49.7002;940.7872;;;;
2021/09/03 10:07:48;;;;;;;3.7;2.9;;;;;;;24.59;51.59961;940.7906;;;;
2021/09/03 10:10:14;;;;;;;3.5;2.8;;;;;;;24.37;50.43066;940.743;;;;
2021/09/03 10:12:39;;;;;;;4.4;3.1;;;;;;;24.81;52.0127;940.7812;;;;
2021/09/03 10:15:04;;;;;;;3.7;2.8;;;;;;;24.37;52.63379;940.7194;;;;
2021/09/03 10:17:32;;;;;;;3.3;2.8;;;;;;;24.28;54.7666;940.7112;;;;
2021/09/03 10:19:54;;;;;;;3.5;3.1;;;;;;;24.08;53.62402;940.6848;;;;
2021/09/03 10:22:21;;;;;;;3;2.7;;;;;;;25.15;50.95605;940.6288;;;;
2021/09/03 10:24:46;;;;;;;3.6;3;;;;;;;25.22;51.83691;940.635;;;;
2021/09/03 10:27:10;;;;;;;4.4;3.1;;;;;;;24.9;55.96387;940.6406;;;;
2021/09/03 10:29:36;;;;;;;3.9;3.2;;;;;;;25.15;53.02148;940.5932;;;;
2021/09/03 10:32:01;;;;;;;4.6;2.9;;;;;;;25.73;51.22266;940.5204;;;;
2021/09/03 10:34:26;;;;;;;3.9;3.4;;;;;;;26.19;51.01465;940.4944;;;;
2021/09/03 10:36:51;;;;;;;3.1;2.8;;;;;;;26.89;48.14453;940.4191;;;;
2021/09/03 10:39:16;;;;;;;3.2;2.9;;;;;;;27.23;47.18555;940.4288;;;;
2021/09/03 10:41:41;;;;;;;4.7;3;;;;;;;28.02;46.09082;940.5011;;;;
2021/09/03 10:44:07;;;;;;;5.2;3;;;;;;;28.58;43.90137;940.4172;;;;
2021/09/03 10:46:32;;;;;;;3.6;2.9;;;;;;;27.5;48.43457;940.3936;;;;
2021/09/03 10:48:57;;;;;;;4.3;3.3;;;;;;;26.98;50.83203;940.3748;;;;
2021/09/03 10:51:22;;;;;;;3.5;3.1;;;;;;;27.06;49.79883;940.331;;;;
2021/09/03 10:53:47;;;;;;;4.3;3.1;;;;;;;27.05;48.8252;940.3298;;;;
2021/09/03 10:56:13;;;;;;;4.3;2.9;;;;;;;27.57;49.28516;940.3187;;;;
2021/09/03 10:58:37;;;;;;;3.6;3;;;;;;;27.69;48.36035;940.3016;;;;
2021/09/03 11:01:03;;;;;;;3.6;3;;;;;;;28.23;45.74414;940.2939;;;;
2021/09/03 11:03:28;;;;;;;3.8;2.9;;;;;;;28.7;45.44629;940.3111;;;;
2021/09/03 11:05:53;;;;;;;4.9;3.3;;;;;;;28.07;48.0332;940.288;;;;
2021/09/03 11:08:18;;;;;;;3.7;3;;;;;;;27.69;48.70508;940.2967;;;;
2021/09/03 11:10:43;;;;;;;3.5;3;;;;;;;27.8;48.64551;940.2559;;;;
2021/09/03 11:13:10;;;;;;;3.2;2.9;;;;;;;28.05;47.46094;940.2802;;;;
2021/09/03 11:15:34;;;;;;;3.8;3.1;;;;;;;28.98;45.26074;940.3239;;;;
2021/09/03 11:17:59;;;;;;;4.4;2.9;;;;;;;28.99;44;940.2813;;;;
2021/09/03 11:20:24;;;;;;;4.2;3.5;;;;;;;30.28;40.06738;940.2575;;;;
2021/09/03 11:22:49;;;;;;;4.4;3;;;;;;;30.81;39.77832;940.1985;;;;
2021/09/03 11:25:14;;;;;;;3.7;3.3;;;;;;;29.96;43.18848;940.2408;;;;
2021/09/03 11:27:41;;;;;;;4.4;3.2;;;;;;;30.08;42.18555;940.192;;;;
2021/09/03 11:30:04;;;;;;;3.1;2.7;;;;;;;30.06;42.01563;940.1575;;;;
2021/09/03 11:32:31;;;;;;;5;3.1;;;;;;;29.71;42.81836;940.1688;;;;
2021/09/03 11:34:56;;;;;;;5.6;3.3;;;;;;;30.25;41.46094;940.1691;;;;
2021/09/03 11:37:22;;;;;;;3.5;3;;;;;;;30.43;41.71582;940.1184;;;;
2021/09/03 11:39:47;;;;;;;3.6;3.1;;;;;;;30.9;40.80273;940.1174;;;;
2021/09/03 11:42:12;;;;;;;3.9;3.3;;;;;;;31.33;38.96289;940.0823;;;;
2021/09/03 11:44:37;;;;;;;3.7;2.9;;;;;;;30.9;40.50488;940.0676;;;;
2021/09/03 11:47:03;;;;;;;3.3;3;;;;;;;30.75;40.38379;940.0891;;;;
2021/09/03 11:49:28;;;;;;;3.9;3;;;;;;;30.02;40.60449;940.0951;;;;
2021/09/03 11:51:53;;;;;;;3.5;3;;;;;;;30.72;41.01465;940.0704;;;;
2021/09/03 11:54:18;;;;;;;3.5;3.2;;;;;;;30.72;40.72656;940.0527;;;;
2021/09/03 11:56:44;;;;;;;4.1;3.4;;;;;;;30.26;40.98438;940.0403;;;;
2021/09/03 11:59:09;;;;;;;5.4;3.7;;;;;;;30.91;39.89551;939.9799;;;;
2021/09/03 12:01:34;;;;;;;3.9;3.2;;;;;;;31.64;38.23633;940.0209;;;;
2021/09/03 12:04:01;;;;;;;3.6;3.1;;;;;;;30.91;41.13965;940.0186;;;;
2021/09/03 12:06:26;;;;;;;3.8;3.4;;;;;;;31.32;39.89551;939.9949;;;;
2021/09/03 12:08:51;;;;;;;5.2;3.3;;;;;;;31.81;38.46484;939.9609;;;;
2021/09/03 12:11:19;;;;;;;3.7;3.2;;;;;;;33.05;36.15625;940.024;;;;
2021/09/03 12:13:42;;;;;;;4.3;3.2;;;;;;;31.82;39.31641;939.9916;;;;
2021/09/03 12:16:07;;;;;;;4.5;3.5;;;;;;;31.64;39.73242;939.9734;;;;
2021/09/03 12:18:32;;;;;;;3.6;3;;;;;;;30.49;42.36719;939.9603;;;;
2021/09/03 12:20:57;;;;;;;4.7;3.1;;;;;;;31.33;40.59082;939.8973;;;;
2021/09/03 12:23:22;;;;;;;4.4;3.6;;;;;;;30.17;43.30371;939.9154;;;;
2021/09/03 12:25:47;;;;;;;3.9;3.5;;;;;;;30.25;42.67773;939.9099;;;;
2021/09/03 12:28:12;;;;;;;5.2;3.5;;;;;;;30.85;42.01758;939.8507;;;;
2021/09/03 12:30:37;;;;;;;4.3;3.5;;;;;;;30.97;41.32324;939.8971;;;;
2021/09/03 12:33:02;;;;;;;5.1;3.5;;;;;;;30.95;41.26172;939.8425;;;;
2021/09/03 12:35:28;;;;;;;3.9;3.3;;;;;;;31.36;39.94727;939.8538;;;;
2021/09/03 12:37:53;;;;;;;3.9;3.5;;;;;;;31.9;39.15625;939.8552;;;;
2021/09/03 12:40:18;;;;;;;5;3.6;;;;;;;31.94;39.59082;939.881;;;;
2021/09/03 12:42:44;;;;;;;3.7;3.3;;;;;;;32.13;38.76758;939.8028;;;;
2021/09/03 12:45:09;;;;;;;4.3;3.1;;;;;;;31.33;39.42969;939.74;;;;
2021/09/03 12:47:35;;;;;;;4.2;3.4;;;;;;;30.88;40.9209;939.7838;;;;
2021/09/03 12:50:00;;;;;;;4.1;3.5;;;;;;;31.45;39.57227;939.7703;;;;
2021/09/03 12:52:26;;;;;;;4.5;3.2;;;;;;;31.14;40.53809;939.6721;;;;
2021/09/03 12:54:50;;;;;;;4.1;3.2;;;;;;;31.33;40.45898;939.7531;;;;
2021/09/03 12:57:16;;;;;;;5.3;3.5;;;;;;;31.83;38.84961;939.7272;;;;
2021/09/03 12:59:40;;;;;;;5;3.7;;;;;;;31.51;39.625;939.6965;;;;
2021/09/03 13:02:08;;;;;;;4.6;3.8;;;;;;;31.87;38.51758;939.6729;;;;
2021/09/03 13:04:32;;;;;;;4.5;3.2;;;;;;;30.85;41.33691;939.6717;;;;
2021/09/03 13:06:57;;;;;;;4;3.3;;;;;;;30.44;41.87305;939.6345;;;;
2021/09/03 13:09:22;;;;;;;3.9;3.5;;;;;;;30.5;41.36523;939.6035;;;;
2021/09/03 13:11:47;;;;;;;4.1;3.7;;;;;;;30.51;41.31738;939.6361;;;;
2021/09/03 13:14:13;;;;;;;4.7;3.5;;;;;;;31.95;39.47168;939.6232;;;;
2021/09/03 13:16:38;;;;;;;4.2;3.5;;;;;;;32.7;38.1084;939.6077;;;;
2021/09/03 13:19:04;;;;;;;3.5;3.2;;;;;;;32.49;37.7793;939.5494;;;;
2021/09/03 13:21:29;;;;;;;3.7;3.4;;;;;;;32.41;37.25586;939.5109;;;;
2021/09/03 13:23:55;;;;;;;4.2;3.1;;;;;;;30.65;41.9043;939.498;;;;
2021/09/03 13:26:20;;;;;;;4.1;3.2;;;;;;;30.59;41.85059;939.4192;;;;
2021/09/03 13:28:46;;;;;;;4.2;3.5;;;;;;;30.13;42.70313;939.4406;;;;
2021/09/03 13:31:11;;;;;;;5;3.6;;;;;;;29.23;44.47559;939.3837;;;;
2021/09/03 13:33:36;;;;;;;4.5;3.5;;;;;;;28.68;45.62402;939.3865;;;;
2021/09/03 13:36:01;;;;;;;3.7;3.3;;;;;;;28.77;45.47852;939.3695;;;;
2021/09/03 13:38:26;;;;;;;4.3;3.4;;;;;;;28.49;46.49707;939.3631;;;;
2021/09/03 13:40:51;;;;;;;4.6;3.7;;;;;;;28.38;47.62598;939.3022;;;;
2021/09/03 13:43:16;;;;;;;5.1;3.5;;;;;;;27.95;48.70898;939.3225;;;;
2021/09/03 13:45:41;;;;;;;4.2;3.8;;;;;;;27.56;47.59863;939.31;;;;
2021/09/03 13:48:07;;;;;;;4.4;3.8;;;;;;;26.9;50.18262;939.318;;;;
2021/09/03 13:50:32;;;;;;;4.2;3.7;;;;;;;26.62;51.60938;939.2294;;;;
2021/09/03 13:52:57;;;;;;;4.2;3.8;;;;;;;26.67;52.13574;939.1874;;;;
2021/09/03 13:55:27;;;;;;;6;3.8;;;;;;;26.75;51.16309;939.209;;;;
2021/09/03 13:57:53;;;;;;;6.5;4.1;;;;;;;26.69;52.07813;939.1815;;;;
2021/09/03 14:00:18;;;;;;;5.4;4.2;;;;;;;26.71;52.23438;939.1657;;;;
2021/09/03 14:02:44;;;;;;;6.2;3.9;;;;;;;26.06;54.15723;939.1002;;;;
2021/09/03 14:05:09;;;;;;;4.1;3.7;;;;;;;26.17;52.64551;939.0416;;;;
2021/09/03 14:07:35;;;;;;;5.6;3.7;;;;;;;26.2;52.87305;939.0606;;;;
2021/09/03 14:12:42;;;;;;;5.2;3.8;;;;;;;26.11;53.38379;939.06;;;;
2021/09/03 14:15:07;;;;;;;4.9;3.8;;;;;;;25.98;53.88867;938.9811;;;;
2021/09/03 14:17:33;;;;;;;5.3;4.1;;;;;;;25.97;54.98633;939.0709;;;;
2021/09/03 14:19:57;;;;;;;4.6;3.7;;;;;;;25.59;55.12988;939.0211;;;;
2021/09/03 14:22:23;;;;;;;5.1;3.8;;;;;;;25.53;53.77539;938.9564;;;;